Terminal Aerodrome Forecast
Issued by NWS Mt. Holly, NJ

Home | Current Version | Previous Version | Text Only | Print | Product List | Glossary On
Versions: 1 2 3 4 5 6 7 8 9 10 11 12 13 14 15 16 17 18 19 20 21 22
000
FTAK31 PANC 250119 AAA
TAFABE
TAF AMD
PABE 250119Z 2501/2524 20017KT P6SM BKN015 OVC025
     FM251200 17015KT P6SM VCSH SCT005 BKN015 WS020/21035KT
     FM251500 18021G30KT 5SM -SHSN SCT005 OVC012 WS020/21045KT
     FM251800 18021G30KT P6SM VCSH SCT012 OVC020 WS020/21050KT
     FM252200 19023KT 2SM -SN SCT002 OVC008 WS020/22055KT=

USA.gov is the U.S. government's official web portal to all federal, state and local government web resources and services.